Latest Weather Observations for Coonawarra

IDS60801

Issued at 7:51 am CDT Tuesday 6 December 2022 (issued every 10 minutes, with the page automatically refreshed every 10 minutes)

About weather observations | Map of weather stations | Latest weather observations for SA | Other Formats
Station Details ID: 026091 Name: COONAWARRA Lat: -37.29 Lon: 140.83 Height: 57.0 m
Data from the previous 72 hours. | See also: Recent months at Coonawarra
Date/Time
CDT
Temp
°C
App
Temp
°C
Dew
Point
°C
Rel
Hum
%
Delta-T
°C
Wind Press
QNH
hPa
Press
MSL
hPa
Rain since
9am
mm
Dir  Spd
km/h
Gust
km/h
Spd
kts
Gust
kts
06/07:30am 12.3 9.1 7.0 70 2.6 SSE 13 20 7 11 1013.9 1013.8 0.0
06/07:00am 10.1 7.6 6.6 79 1.6 SSE 9 11 5 6 1013.7 1013.6 0.0
06/06:30am 7.1 5.0 5.6 90 0.7 S 6 7 3 4 1013.7 1013.6 0.0
06/06:00am 6.4 3.5 4.6 88 0.8 S 9 11 5 6 1013.7 1013.6 0.0
06/05:30am 5.9 2.9 4.1 88 0.8 S 9 11 5 6 1013.5 1013.4 0.0
06/05:00am 7.3 4.4 4.6 83 1.2 SSE 9 13 5 7 1013.4 1013.3 0.0
06/04:30am 7.1 3.9 4.9 86 1.0 S 11 13 6 7 1013.8 1013.7 0.0
06/04:00am 7.6 3.9 4.7 82 1.3 SSE 13 15 7 8 1013.6 1013.5 0.0
06/03:30am 7.0 4.0 4.3 83 1.2 S 9 9 5 5 1014.3 1014.2 0.0
06/03:00am 8.0 4.8 5.3 83 1.2 S 11 13 6 7 1014.5 1014.4 0.0
06/02:30am 8.9 5.7 5.1 77 1.7 SSE 11 13 6 7 1014.8 1014.7 0.0
06/02:00am 8.9 6.5 5.3 78 1.6 S 7 11 4 6 1015.4 1015.3 0.0
06/01:30am 9.5 7.1 5.3 75 1.9 S 7 11 4 6 1015.6 1015.5 0.0
06/01:00am 10.4 7.4 5.8 73 2.1 SSE 11 13 6 7 1015.7 1015.6 0.0
06/12:30am 9.3 8.4 5.9 79 1.6 CALM 0 7 0 4 1016.4 1016.3 0.0
06/12:00am 9.7 6.9 5.3 74 2.0 SSE 9 13 5 7 1016.4 1016.3 0.0
 
Date/Time
CDT
Temp
°C
App
Temp
°C
Dew
Point
°C
Rel
Hum
%
Delta-T
°C
Wind Press
QNH
hPa
Press
MSL
hPa
Rain since
9am
mm
Dir  Spd
km/h
Gust
km/h
Spd
kts
Gust
kts
05/11:30pm 9.9 7.2 5.5 74 2.0 SSE 9 11 5 6 1016.7 1016.6 0.0
05/11:00pm 11.4 8.2 5.1 65 2.9 SSE 11 15 6 8 1017.0 1016.9 0.0
05/10:30pm 12.1 8.1 5.0 62 3.3 SE 15 20 8 11 1016.9 1016.8 0.0
05/10:00pm 12.0 7.2 4.7 61 3.3 SSE 19 26 10 14 1017.0 1016.9 0.0
05/09:30pm 13.0 8.8 5.7 61 3.4 SSE 17 24 9 13 1016.8 1016.7 0.0
05/09:00pm 13.2 9.0 5.9 61 3.5 SSE 17 26 9 14 1016.3 1016.2 0.0
05/08:30pm 13.5 9.4 6.1 61 3.5 SSE 17 24 9 13 1016.3 1016.2 0.0
05/08:00pm 13.6 8.9 6.0 60 3.6 SSE 20 32 11 17 1016.5 1016.4 0.0
05/07:30pm 13.9 9.2 6.0 59 3.8 SSE 20 35 11 19 1016.5 1016.4 0.0
05/07:00pm 14.6 9.4 5.7 55 4.2 SSE 22 35 12 19 1016.4 1016.3 0.0
05/06:30pm 16.3 11.7 6.4 52 4.8 SSE 20 30 11 16 1016.0 1015.9 0.0
05/06:00pm 16.6 11.3 6.7 52 4.9 SSE 24 32 13 17 1015.8 1015.7 0.0
05/05:30pm 17.0 11.6 6.2 49 5.3 SE 24 39 13 21 1015.5 1015.4 0.0
05/05:00pm 17.7 12.0 6.9 49 5.4 S 26 37 14 20 1015.5 1015.4 0.0
05/04:30pm 17.6 12.3 6.8 49 5.4 SSE 24 35 13 19 1015.6 1015.5 0.0
05/04:00pm 17.5 11.9 7.0 50 5.2 SSE 26 39 14 21 1015.7 1015.6 0.0
05/03:51pm 17.2 11.2 7.0 51 5.1 SSE 28 48 15 26 1015.6 1015.5 0.0
05/03:30pm 18.6 13.4 7.4 48 5.7 S 24 39 13 21 1015.7 1015.6 0.0
05/03:00pm 18.6 12.7 7.4 48 5.7 S 28 43 15 23 1015.8 1015.7 0.0
05/02:30pm 18.7 13.7 8.1 50 5.5 SSE 24 35 13 19 1015.8 1015.7 0.0
05/02:00pm 18.1 13.2 6.9 48 5.6 S 22 35 12 19 1015.8 1015.7 0.0
05/01:30pm 18.2 13.0 7.3 49 5.5 S 24 41 13 22 1016.0 1015.9 0.0
05/01:00pm 18.6 13.3 8.6 52 5.2 S 26 37 14 20 1016.1 1016.0 0.0
05/12:30pm 17.3 11.6 6.8 50 5.2 S 26 35 14 19 1016.0 1015.9 0.0
05/12:00pm 17.8 12.9 8.4 54 4.8 S 24 35 13 19 1016.0 1015.9 0.0
05/11:30am 17.1 11.6 9.0 59 4.2 S 28 43 15 23 1015.8 1015.7 0.0
05/11:00am 16.3 10.6 8.3 59 4.1 S 28 39 15 21 1015.7 1015.6 0.0
05/10:30am 16.8 11.8 9.5 62 3.8 S 26 37 14 20 1015.5 1015.4 0.0
05/10:00am 16.2 11.2 9.6 65 3.4 S 26 35 14 19 1015.4 1015.3 0.0
05/09:30am 15.6 10.6 9.5 67 3.2 S 26 41 14 22 1015.2 1015.1 0.0
05/09:00am 15.0 10.6 10.4 74 2.4 S 24 39 13 21 1015.1 1015.0 0.0
05/08:30am 14.2 9.9 11.9 86 1.2 S 26 33 14 18 1014.9 1014.8 0.0
05/08:00am 14.0 10.7 11.0 82 1.6 SSE 19 28 10 15 1014.6 1014.5 0.0
05/07:30am 13.9 10.2 11.6 86 1.2 S 22 30 12 16 1014.1 1014.0 0.0
05/07:00am 13.9 10.7 11.4 85 1.3 S 19 26 10 14 1013.7 1013.6 0.0
05/06:30am 13.3 9.9 11.4 88 1.0 S 20 30 11 16 1013.4 1013.3 0.0
05/06:00am 13.4 10.0 11.3 87 1.1 S 20 30 11 16 1013.2 1013.1 0.0
05/05:30am 14.0 10.0 10.4 79 1.9 S 22 32 12 17 1013.0 1012.9 0.0
05/05:00am 14.2 10.5 9.6 74 2.4 S 19 24 10 13 1012.7 1012.6 0.0
05/04:30am 14.2 10.8 10.4 78 2.0 S 19 26 10 14 1012.5 1012.4 0.0
05/04:00am 14.1 10.5 10.5 79 1.9 S 20 28 11 15 1012.5 1012.4 0.0
05/03:30am 14.6 10.9 9.6 72 2.6 S 19 26 10 14 1012.4 1012.3 0.0
05/03:00am 14.4 9.9 10.2 76 2.2 S 24 37 13 20 1012.3 1012.2 0.0
05/02:30am 14.3 10.9 10.5 78 2.0 S 19 24 10 13 1012.3 1012.2 0.0
05/02:00am 13.8 9.5 12.2 90 0.9 S 26 37 14 20 1012.0 1011.9 0.0
05/01:30am 15.0 10.9 12.7 86 1.3 SSW 26 35 14 19 1011.9 1011.8 0.0
05/01:00am 15.5 12.1 12.6 83 1.6 SSW 22 37 12 20 1011.5 1011.4 0.0
05/12:30am 15.7 13.8 13.0 84 1.5 SSW 15 20 8 11 1011.1 1011.0 0.0
05/12:00am 15.8 13.5 12.9 83 1.6 SW 17 24 9 13 1011.6 1011.5 0.0
 
Date/Time
CDT
Temp
°C
App
Temp
°C
Dew
Point
°C
Rel
Hum
%
Delta-T
°C
Wind Press
QNH
hPa
Press
MSL
hPa
Rain since
9am
mm
Dir  Spd
km/h
Gust
km/h
Spd
kts
Gust
kts
04/11:30pm 15.9 14.4 13.2 84 1.5 SW 13 17 7 9 1011.0 1010.9 0.0
04/11:00pm 16.0 13.7 13.1 83 1.6 SW 17 22 9 12 1011.3 1011.2 0.0
04/10:30pm 16.1 13.9 13.2 83 1.6 SW 17 22 9 12 1011.4 1011.3 0.0
04/10:00pm 16.1 13.4 13.0 82 1.7 SW 19 26 10 14 1011.3 1011.2 0.0
04/09:30pm 16.1 13.4 13.0 82 1.7 SW 19 26 10 14 1010.8 1010.7 0.0
04/09:00pm 16.3 13.4 13.0 81 1.8 WSW 20 26 11 14 1010.5 1010.4 0.0
04/08:30pm 16.7 14.2 13.4 81 1.9 SW 19 28 10 15 1010.3 1010.2 0.0
04/08:00pm 16.7 12.8 13.2 80 2.0 WSW 26 33 14 18 1009.8 1009.7 0.0
04/07:30pm 17.3 14.3 13.8 80 2.0 SW 22 30 12 16 1009.5 1009.4 0.0
04/07:00pm 19.3 15.8 14.6 74 2.7 WSW 26 39 14 21 1009.0 1008.9 0.0
04/06:30pm 21.4 19.6 15.9 71 3.3 SW 20 30 11 16 1008.2 1008.0 0.0
04/06:00pm 23.1 21.1 16.4 66 4.1 SW 22 35 12 19 1007.7 1007.5 0.0
04/05:30pm 26.8 23.4 11.3 38 8.9 W 20 30 11 16 1007.4 1007.2 0.0
04/05:00pm 28.0 24.6 9.3 31 10.4 W 17 28 9 15 1007.1 1006.9 0.0
04/04:30pm 29.7 25.5 9.8 29 11.2 W 22 30 12 16 1007.5 1007.3 0.0
04/04:00pm 29.2 27.6 15.0 42 8.7 SW 17 22 9 12 1007.5 1007.3 0.0
04/03:30pm 29.4 27.0 11.5 33 10.4 WSW 15 20 8 11 1007.4 1007.2 0.0
04/03:00pm 30.3 27.6 11.8 32 10.8 WSW 17 22 9 12 1007.9 1007.7 0.0
04/02:30pm 31.3 28.9 12.6 31 11.1 WNW 17 24 9 13 1007.8 1007.6 0.0
04/02:00pm 30.5 27.4 11.5 31 11.0 NW 19 28 10 15 1008.2 1008.0 0.0
04/01:30pm 31.7 27.3 10.4 27 12.3 WNW 24 32 13 17 1008.7 1008.6 0.0
04/01:00pm 32.7 28.4 10.7 26 12.8 WNW 24 35 13 19 1008.8 1008.7 0.0
04/12:30pm 32.1 28.2 10.8 27 12.4 WNW 22 35 12 19 1009.1 1009.0 0.0
04/12:00pm 31.7 27.0 9.3 25 12.7 WNW 24 37 13 20 1009.3 1009.2 0.0
04/11:30am 30.7 26.5 9.6 27 11.9 NW 22 35 12 19 1009.4 1009.3 0.0
04/11:00am 30.2 27.3 13.0 34 10.2 NNW 20 28 11 15 1009.6 1009.5 0.0
04/10:30am 29.5 26.7 13.3 37 9.7 NW 20 28 11 15 1010.0 1009.9 0.0
04/10:00am 28.8 25.6 13.1 38 9.3 NNW 22 30 12 16 1009.8 1009.7 0.0
04/09:30am 26.6 25.3 13.7 45 7.7 NNW 13 20 7 11 1010.1 1010.0 0.0
04/09:00am 25.1 23.8 13.6 48 6.8 NNW 13 19 7 10 1010.3 1010.2 0.0
04/08:30am 23.6 22.2 13.5 53 5.9 NW 13 19 7 10 1010.6 1010.5 0.0
04/08:00am 21.6 19.4 13.2 58 4.8 N 17 20 9 11 1009.8 1009.7 0.0
04/07:30am 17.8 17.3 13.7 77 2.3 N 9 11 5 6 1010.0 1009.9 0.0
04/07:00am 13.8 14.3 11.7 87 1.1 CALM 0 2 0 1 1010.0 1009.9 0.0
04/06:30am 11.2 10.1 10.0 92 0.6 WNW 6 7 3 4 1010.0 1009.9 0.0
04/06:00am 9.1 7.3 8.0 93 0.5 N 7 11 4 6 1009.8 1009.7 0.0
04/05:30am 8.7 6.0 7.5 92 0.6 NNW 11 13 6 7 1009.6 1009.5 0.0
04/05:00am 8.7 7.0 7.5 92 0.6 NNE 6 7 3 4 1009.7 1009.6 0.0
04/04:30am 9.3 8.8 7.9 91 0.7 CALM 0 0 0 0 1009.5 1009.4 0.0
04/04:00am 10.0 8.4 8.6 91 0.7 NE 7 9 4 5 1009.6 1009.5 0.0
04/03:30am 10.3 8.4 9.1 92 0.6 NE 9 11 5 6 1009.8 1009.7 0.0
04/03:00am 9.9 8.4 8.3 90 0.8 NE 6 7 3 4 1010.4 1010.3 0.0
04/02:30am 10.4 9.4 8.7 89 0.8 NE 4 7 2 4 1010.8 1010.7 0.0
04/02:00am 10.6 10.3 8.7 88 0.9 CALM 0 0 0 0 1011.1 1011.0 0.0
04/01:30am 11.6 11.5 9.3 86 1.2 CALM 0 0 0 0 1011.6 1011.5 0.0
04/01:00am 12.7 11.3 9.7 82 1.5 ESE 7 9 4 5 1011.9 1011.8 0.0
04/12:30am 14.0 12.4 10.2 78 2.0 S 9 9 5 5 1012.5 1012.4 0.0
04/12:00am 15.3 14.0 10.1 71 2.7 SSE 7 9 4 5 1012.5 1012.4 0.0
 
Date/Time
CDT
Temp
°C
App
Temp
°C
Dew
Point
°C
Rel
Hum
%
Delta-T
°C
Wind Press
QNH
hPa
Press
MSL
hPa
Rain since
9am
mm
Dir  Spd
km/h
Gust
km/h
Spd
kts
Gust
kts
03/11:30pm 16.8 15.1 10.0 64 3.6 E 9 11 5 6 1012.6 1012.5 0.0
03/11:00pm 17.0 14.9 9.7 62 3.8 E 11 13 6 7 1012.7 1012.6 0.0
03/10:30pm 17.4 16.0 10.8 65 3.6 ESE 9 11 5 6 1012.9 1012.8 0.0
03/10:00pm 18.8 17.3 10.6 59 4.4 SE 9 11 5 6 1013.0 1012.9 0.0
03/09:30pm 19.7 18.3 10.9 57 4.8 SE 9 13 5 7 1012.9 1012.8 0.0
03/09:00pm 21.0 19.8 11.6 55 5.2 SE 9 13 5 7 1012.7 1012.6 0.0
03/08:30pm 22.1 20.8 11.2 50 6.1 SSE 9 11 5 6 1012.6 1012.5 0.0
03/08:00pm 23.6 21.9 11.3 46 6.9 S 11 13 6 7 1012.4 1012.3 0.0
03/07:30pm 25.8 24.1 11.2 40 8.3 SSW 11 15 6 8 1012.3 1012.2 0.0
03/07:00pm 27.1 24.5 10.8 36 9.2 SSW 15 20 8 11 1012.1 1012.0 0.0
03/06:30pm 27.8 24.8 10.5 34 9.8 SSW 17 24 9 13 1011.8 1011.7 0.0
03/06:00pm 28.5 24.8 10.2 32 10.3 SSW 20 28 11 15 1011.6 1011.5 0.0
03/05:30pm 29.0 24.7 10.6 32 10.5 SW 24 32 13 17 1011.6 1011.5 0.0
03/05:00pm 29.9 25.9 10.5 30 11.1 SW 22 30 12 16 1011.6 1011.5 0.0
03/04:30pm 31.1 29.3 11.0 29 11.6 S 11 17 6 9 1011.5 1011.4 0.0
03/04:00pm 30.7 27.6 7.2 23 12.8 NW 13 20 7 11 1011.8 1011.7 0.0
03/03:30pm 30.9 28.7 8.0 24 12.6 N 9 17 5 9 1012.0 1011.9 0.0
03/03:00pm 30.9 28.4 9.7 27 12.0 W 13 20 7 11 1012.4 1012.3 0.0
03/02:30pm 30.5 28.3 9.4 27 11.9 SW 11 15 6 8 1012.7 1012.6 0.0
03/02:00pm 30.4 27.5 8.2 25 12.2 W 13 20 7 11 1012.9 1012.8 0.0
03/01:30pm 30.0 27.5 8.4 26 11.9 NW 11 20 6 11 1013.3 1013.2 0.0
03/01:00pm 30.0 27.4 9.5 28 11.5 WNW 13 24 7 13 1013.5 1013.4 0.0
03/12:30pm 29.7 26.5 9.8 29 11.2 WNW 17 24 9 13 1013.8 1013.7 0.0
03/12:00pm 29.3 27.0 8.9 28 11.3 NW 11 20 6 11 1014.0 1013.9 0.0
03/11:30am 28.9 25.9 7.5 26 11.6 NW 13 24 7 13 1014.2 1014.1 0.0
03/11:00am 28.3 27.7 13.4 40 8.8 NNE 9 13 5 7 1014.4 1014.3 0.0
03/10:30am 27.3 26.2 12.1 39 8.8 N 9 15 5 8 1014.5 1014.4 0.0
03/10:00am 26.2 25.8 14.0 47 7.3 N 9 15 5 8 1014.6 1014.5 0.0
03/09:30am 25.0 24.4 14.5 52 6.3 NNE 11 17 6 9 1014.8 1014.7 0.0
03/09:00am 24.3 23.6 14.4 54 5.9 NNE 11 15 6 8 1015.0 1014.9 0.0
03/08:30am 21.8 21.7 14.9 65 4.1 NNE 9 11 5 6 1014.9 1014.8 0.0
03/08:00am 18.7 19.3 14.2 75 2.6 NE 4 7 2 4 1014.7 1014.6 0.0

Other formats

Comma delimited format used in spreadsheet applications
http://www.bom.gov.au/fwo/IDS60801/IDS60801.94817.axf

JavaScript Object Notation format (JSON) in row-major order
http://www.bom.gov.au/fwo/IDS60801/IDS60801.94817.json

Data quality

Most of these data are generated automatically and are frequently updated. Quality checks on data are not normally performed. It is possible for incorrect values to appear. Refer to information at About Latest Weather Observations and please check the disclaimer before using these data.